createdAt,value
2023-03-14T00:00:10.754Z,0.00
2023-03-14T00:01:10.777Z,0.00
2023-03-14T00:02:10.832Z,0.00
2023-03-14T00:03:10.833Z,0.00
2023-03-14T00:04:10.846Z,0.00
2023-03-14T00:05:10.871Z,0.00
2023-03-14T00:06:10.894Z,0.00
2023-03-14T00:07:10.916Z,0.00
2023-03-14T00:08:10.944Z,0.00
2023-03-14T00:09:10.967Z,0.00
2023-03-14T00:10:11.001Z,0.00
2023-03-14T00:11:11.020Z,0.00
2023-03-14T00:12:11.031Z,0.00
2023-03-14T00:13:11.058Z,0.00
2023-03-14T00:14:11.079Z,0.00
2023-03-14T00:15:11.113Z,0.00
2023-03-14T00:16:11.224Z,0.00
2023-03-14T00:17:11.148Z,0.00
2023-03-14T00:18:11.168Z,0.00
2023-03-14T00:19:11.194Z,0.00
2023-03-14T00:20:11.217Z,0.00
2023-03-14T00:21:11.239Z,0.00
2023-03-14T00:22:11.261Z,0.00
2023-03-14T00:23:11.282Z,0.00
2023-03-14T00:24:11.305Z,0.00
2023-03-14T00:25:11.340Z,0.00
2023-03-14T00:26:11.353Z,0.00
2023-03-14T00:27:11.377Z,0.00
2023-03-14T00:28:11.395Z,0.00
2023-03-14T00:29:11.421Z,0.00
2023-03-14T00:30:11.442Z,0.00
2023-03-14T00:31:11.548Z,0.00
2023-03-14T00:32:11.489Z,0.00
2023-03-14T00:33:11.510Z,0.00
2023-03-14T00:34:11.534Z,0.00
2023-03-14T00:35:11.560Z,0.00
2023-03-14T00:36:11.661Z,0.00
2023-03-14T00:37:11.604Z,0.00
2023-03-14T00:38:11.636Z,0.00
2023-03-14T00:39:11.648Z,0.00
2023-03-14T00:40:11.685Z,0.00
2023-03-14T00:41:11.694Z,0.00
2023-03-14T00:42:11.717Z,0.00
2023-03-14T00:43:11.735Z,0.00
2023-03-14T00:44:11.756Z,0.00
2023-03-14T00:45:11.778Z,0.00
2023-03-14T00:46:11.867Z,0.00
2023-03-14T00:47:11.826Z,0.00
2023-03-14T00:48:11.852Z,0.00
2023-03-14T00:49:11.873Z,0.00
2023-03-14T00:50:11.894Z,0.00
2023-03-14T00:51:11.916Z,0.00
2023-03-14T00:52:11.945Z,0.00
2023-03-14T00:53:11.969Z,0.00
2023-03-14T00:54:11.986Z,0.00
2023-03-14T00:55:12.006Z,0.00
2023-03-14T00:56:12.030Z,0.00
2023-03-14T00:57:12.055Z,0.00
2023-03-14T00:58:12.084Z,0.00
2023-03-14T00:59:12.096Z,0.00
2023-03-14T01:00:12.121Z,0.00
2023-03-14T01:01:12.143Z,0.00
2023-03-14T01:02:12.196Z,0.00
2023-03-14T01:03:12.226Z,0.00
2023-03-14T01:04:12.223Z,0.00
2023-03-14T01:05:12.237Z,0.00
2023-03-14T01:06:12.268Z,0.00
2023-03-14T01:07:12.284Z,0.00
2023-03-14T01:08:12.306Z,0.00
2023-03-14T01:09:12.330Z,0.00
2023-03-14T01:10:12.353Z,0.00
2023-03-14T01:11:12.379Z,0.00
2023-03-14T01:12:12.399Z,0.00
2023-03-14T01:13:12.424Z,0.00
2023-03-14T01:14:12.446Z,0.00
2023-03-14T01:15:12.469Z,0.00
2023-03-14T01:16:12.546Z,0.00
2023-03-14T01:17:12.524Z,0.00
2023-03-14T01:18:12.541Z,0.00
2023-03-14T01:19:12.560Z,0.00
2023-03-14T01:20:12.584Z,0.00
2023-03-14T01:21:12.610Z,0.00
2023-03-14T01:22:12.641Z,0.00
2023-03-14T01:23:12.662Z,0.00
2023-03-14T01:24:12.699Z,0.00
2023-03-14T01:25:12.701Z,0.00
2023-03-14T01:26:12.724Z,0.00
2023-03-14T01:27:12.751Z,0.00
2023-03-14T01:28:12.773Z,0.00
2023-03-14T01:29:12.792Z,0.00
2023-03-14T01:30:12.818Z,0.00
2023-03-14T01:31:12.904Z,0.00
2023-03-14T01:32:12.867Z,0.00
2023-03-14T01:33:12.894Z,0.00
2023-03-14T01:34:12.914Z,0.00
2023-03-14T01:35:12.932Z,0.00
2023-03-14T01:36:13.018Z,0.00
2023-03-14T01:37:12.981Z,0.00
2023-03-14T01:38:13.018Z,0.00
2023-03-14T01:39:13.119Z,0.00
2023-03-14T01:40:13.052Z,0.00
2023-03-14T01:41:13.076Z,0.00
2023-03-14T01:42:13.117Z,0.00
2023-03-14T01:43:13.118Z,0.00
2023-03-14T01:44:13.148Z,0.00
2023-03-14T01:45:13.166Z,0.00
2023-03-14T01:46:13.229Z,0.00
2023-03-14T01:47:13.216Z,0.00
2023-03-14T01:48:13.234Z,0.00
2023-03-14T01:49:13.258Z,0.00
2023-03-14T01:50:13.304Z,0.00
2023-03-14T01:51:13.313Z,0.00
2023-03-14T01:52:13.329Z,0.00
2023-03-14T01:53:13.350Z,0.00
2023-03-14T01:54:13.379Z,0.00
2023-03-14T01:55:13.410Z,0.00
2023-03-14T01:56:13.420Z,0.00
2023-03-14T01:57:13.449Z,0.00
2023-03-14T01:58:13.468Z,0.00
2023-03-14T01:59:13.496Z,0.00
2023-03-14T02:00:13.528Z,0.00
2023-03-14T02:01:13.615Z,0.00
2023-03-14T02:02:13.560Z,0.00
2023-03-14T02:03:13.614Z,0.00
2023-03-14T02:04:13.607Z,0.00
2023-03-14T02:05:13.629Z,0.00
2023-03-14T02:06:13.655Z,0.00
2023-03-14T02:07:13.686Z,0.00
2023-03-14T02:08:13.699Z,0.00
2023-03-14T02:09:13.722Z,0.00
2023-03-14T02:10:13.747Z,0.00
2023-03-14T02:11:13.770Z,0.00
2023-03-14T02:12:13.792Z,0.00
2023-03-14T02:13:13.811Z,0.00
2023-03-14T02:14:13.838Z,0.00
2023-03-14T02:15:13.876Z,0.00
2023-03-14T02:16:13.900Z,0.00
2023-03-14T02:17:13.905Z,0.00
2023-03-14T02:18:13.937Z,0.00
2023-03-14T02:19:13.947Z,0.00
2023-03-14T02:20:13.969Z,0.00
2023-03-14T02:21:13.992Z,0.00
2023-03-14T02:22:14.017Z,0.00
2023-03-14T02:23:14.035Z,0.00
2023-03-14T02:24:14.053Z,0.00
2023-03-14T02:25:14.082Z,0.00
2023-03-14T02:26:14.106Z,0.00
2023-03-14T02:27:14.126Z,0.00
2023-03-14T02:28:14.149Z,0.00
2023-03-14T02:29:14.176Z,0.00
2023-03-14T02:30:14.193Z,0.00
2023-03-14T02:31:14.354Z,0.00
2023-03-14T02:32:14.238Z,0.00
2023-03-14T02:33:14.265Z,0.00
2023-03-14T02:34:14.283Z,0.00
2023-03-14T02:35:14.310Z,0.00
2023-03-14T02:36:14.413Z,0.00
2023-03-14T02:37:14.357Z,0.00
2023-03-14T02:38:14.377Z,0.00
2023-03-14T02:39:14.398Z,0.00
2023-03-14T02:40:14.421Z,0.00
2023-03-14T02:41:14.447Z,0.00
2023-03-14T02:42:14.463Z,0.00
2023-03-14T02:43:14.637Z,0.00
2023-03-14T02:44:14.522Z,0.00
2023-03-14T02:45:14.528Z,0.00
2023-03-14T02:46:14.606Z,0.00
2023-03-14T02:47:14.574Z,0.00
2023-03-14T02:48:14.600Z,0.00
2023-03-14T02:49:14.636Z,0.00
2023-03-14T02:50:14.644Z,0.00
2023-03-14T02:51:14.664Z,0.00
2023-03-14T02:52:14.684Z,0.00
2023-03-14T02:53:14.710Z,0.00
2023-03-14T02:54:14.739Z,0.00
2023-03-14T02:55:14.772Z,0.00
2023-03-14T02:56:14.776Z,0.00
2023-03-14T02:57:14.794Z,0.00
2023-03-14T02:58:14.816Z,0.00
2023-03-14T02:59:14.930Z,0.00
2023-03-14T03:00:14.861Z,0.00
2023-03-14T03:01:14.970Z,0.00
2023-03-14T03:02:14.905Z,0.00
2023-03-14T03:03:14.988Z,0.00
2023-03-14T03:04:14.948Z,0.00
2023-03-14T03:05:14.972Z,0.00
2023-03-14T03:06:15.005Z,0.00
2023-03-14T03:07:15.026Z,0.00
2023-03-14T03:08:15.040Z,0.00
2023-03-14T03:09:15.061Z,0.00
2023-03-14T03:10:15.082Z,0.00
2023-03-14T03:11:15.104Z,0.00
2023-03-14T03:12:15.128Z,0.00
2023-03-14T03:13:15.147Z,0.00
2023-03-14T03:14:15.170Z,0.00
2023-03-14T03:15:15.199Z,0.00
2023-03-14T03:16:15.265Z,0.00
2023-03-14T03:17:15.237Z,0.00
2023-03-14T03:18:15.263Z,0.00
2023-03-14T03:19:15.278Z,0.00
2023-03-14T03:20:15.303Z,0.00
2023-03-14T03:21:15.332Z,0.00
2023-03-14T03:22:15.350Z,0.00
2023-03-14T03:23:15.375Z,0.00
2023-03-14T03:24:15.416Z,0.00
2023-03-14T03:25:15.418Z,0.00
2023-03-14T03:26:15.440Z,0.00
2023-03-14T03:27:15.467Z,0.00
2023-03-14T03:28:15.487Z,0.00
2023-03-14T03:29:15.513Z,0.00
2023-03-14T03:30:15.531Z,0.00
2023-03-14T03:31:15.580Z,0.00
2023-03-14T03:32:15.581Z,0.00
2023-03-14T03:33:15.605Z,0.00
2023-03-14T03:34:15.624Z,0.00
2023-03-14T03:35:15.664Z,0.00
2023-03-14T03:36:15.671Z,0.00
2023-03-14T03:37:15.696Z,0.00
2023-03-14T03:38:15.705Z,0.00
2023-03-14T03:39:15.740Z,0.00
2023-03-14T03:40:15.751Z,0.00
2023-03-14T03:41:15.779Z,0.00
2023-03-14T03:42:15.798Z,0.00
2023-03-14T03:43:15.844Z,0.00
2023-03-14T03:44:15.844Z,0.00
2023-03-14T03:45:15.872Z,0.00
2023-03-14T03:46:15.922Z,0.00
2023-03-14T03:47:15.955Z,0.00
2023-03-14T03:48:15.933Z,0.00
2023-03-14T03:49:15.962Z,0.00
2023-03-14T03:50:15.982Z,0.00
2023-03-14T03:51:15.999Z,0.00
2023-03-14T03:52:16.022Z,0.00
2023-03-14T03:53:26.946Z,0.00
2023-03-14T03:54:16.063Z,0.00
2023-03-14T03:55:16.084Z,0.00
2023-03-14T03:56:16.114Z,0.00
2023-03-14T03:57:16.133Z,0.00
2023-03-14T03:58:16.152Z,0.00
2023-03-14T03:59:16.177Z,0.00
2023-03-14T04:00:16.201Z,0.00
2023-03-14T04:01:16.217Z,0.00
2023-03-14T04:02:16.275Z,0.00
2023-03-14T04:03:16.263Z,0.00
2023-03-14T04:04:16.318Z,0.00
2023-03-14T04:05:16.310Z,0.00
2023-03-14T04:06:16.365Z,0.00
2023-03-14T04:07:16.352Z,0.00
2023-03-14T04:08:16.372Z,0.00
2023-03-14T04:09:16.395Z,0.00
2023-03-14T04:10:16.417Z,0.00
2023-03-14T04:11:18.179Z,0.00
2023-03-14T04:12:16.477Z,0.00
2023-03-14T04:13:16.488Z,0.00
2023-03-14T04:14:16.508Z,0.00
2023-03-14T04:15:16.533Z,0.00
2023-03-14T04:16:16.585Z,0.00
2023-03-14T04:17:16.572Z,0.00
2023-03-14T04:18:16.594Z,0.00
2023-03-14T04:19:16.750Z,0.00
2023-03-14T04:20:16.637Z,0.00
2023-03-14T04:21:16.660Z,0.00
2023-03-14T04:22:16.683Z,0.00
2023-03-14T04:23:16.702Z,0.00
2023-03-14T04:24:16.724Z,0.00
2023-03-14T04:25:16.845Z,0.00
2023-03-14T04:26:16.774Z,0.00
2023-03-14T04:27:16.793Z,0.00
2023-03-14T04:28:16.813Z,0.00
2023-03-14T04:29:16.836Z,0.00
2023-03-14T04:30:16.857Z,0.00
2023-03-14T04:31:16.911Z,0.00
2023-03-14T04:32:16.900Z,0.00
2023-03-14T04:33:16.922Z,0.00
2023-03-14T04:34:16.947Z,0.00
2023-03-14T04:35:16.982Z,0.00
2023-03-14T04:36:16.987Z,0.00
2023-03-14T04:37:17.013Z,0.00
2023-03-14T04:38:17.044Z,0.00
2023-03-14T04:39:17.084Z,0.00
2023-03-14T04:40:18.724Z,0.00
2023-03-14T04:41:17.096Z,0.00
2023-03-14T04:42:17.122Z,0.00
2023-03-14T04:43:17.144Z,0.00
2023-03-14T04:44:17.160Z,0.00
2023-03-14T04:45:17.190Z,0.00
2023-03-14T04:46:17.270Z,0.00
2023-03-14T04:47:17.226Z,0.00
2023-03-14T04:48:17.249Z,0.00
2023-03-14T04:49:17.275Z,0.00
2023-03-14T04:50:17.293Z,0.00
2023-03-14T04:51:17.312Z,0.00
2023-03-14T04:52:17.341Z,0.00
2023-03-14T04:53:17.365Z,0.00
2023-03-14T04:54:17.387Z,0.00
2023-03-14T04:55:17.409Z,0.00
2023-03-14T04:56:17.422Z,0.00
2023-03-14T04:57:17.443Z,0.00
2023-03-14T04:58:17.483Z,0.00
2023-03-14T04:59:17.490Z,0.00
2023-03-14T05:00:17.509Z,0.00
2023-03-14T05:01:17.531Z,0.00
2023-03-14T05:02:17.551Z,0.00
2023-03-14T05:03:17.626Z,0.00
2023-03-14T05:04:17.594Z,0.00
2023-03-14T05:05:17.614Z,0.00
2023-03-14T05:06:17.636Z,0.00
2023-03-14T05:07:17.664Z,0.00
2023-03-14T05:08:17.679Z,0.00
2023-03-14T05:09:17.706Z,0.00
2023-03-14T05:10:17.726Z,0.00
2023-03-14T05:11:17.748Z,0.00
2023-03-14T05:12:17.765Z,0.00
2023-03-14T05:13:17.818Z,0.00
2023-03-14T05:14:17.807Z,0.00
2023-03-14T05:15:17.831Z,0.00
2023-03-14T05:16:17.877Z,0.00
2023-03-14T05:17:17.893Z,0.00
2023-03-14T05:18:17.897Z,0.00
2023-03-14T05:19:17.915Z,0.00
2023-03-14T05:20:17.941Z,0.00
2023-03-14T05:21:17.968Z,0.00
2023-03-14T05:22:17.986Z,0.00
2023-03-14T05:23:18.052Z,0.00
2023-03-14T05:24:18.029Z,0.00
2023-03-14T05:25:18.049Z,0.00
2023-03-14T05:26:18.152Z,0.00
2023-03-14T05:27:18.090Z,0.00
2023-03-14T05:28:18.123Z,0.00
2023-03-14T05:29:18.136Z,0.00
2023-03-14T05:30:18.158Z,0.00
2023-03-14T05:31:18.193Z,0.00
2023-03-14T05:32:18.201Z,0.00
2023-03-14T05:33:18.227Z,0.00
2023-03-14T05:34:18.246Z,0.00
2023-03-14T05:35:18.275Z,0.00
2023-03-14T05:36:18.292Z,0.00
2023-03-14T05:37:20.036Z,0.00
2023-03-14T05:38:18.337Z,0.00
2023-03-14T05:39:18.379Z,0.00
2023-03-14T05:40:18.390Z,0.00
2023-03-14T05:41:18.404Z,0.00
2023-03-14T05:42:18.426Z,0.00
2023-03-14T05:43:18.448Z,0.00
2023-03-14T05:44:18.472Z,0.00
2023-03-14T05:45:18.494Z,0.00
2023-03-14T05:46:18.562Z,0.00
2023-03-14T05:47:18.542Z,0.00
2023-03-14T05:48:18.564Z,0.00
2023-03-14T05:49:18.586Z,0.00
2023-03-14T05:50:18.607Z,0.00
2023-03-14T05:51:18.628Z,5.63
2023-03-14T05:52:18.648Z,5.63
2023-03-14T05:53:18.674Z,5.63
2023-03-14T05:54:18.692Z,5.63
2023-03-14T05:55:18.714Z,5.63
2023-03-14T05:56:18.735Z,5.63
2023-03-14T05:57:18.771Z,11.25
2023-03-14T05:58:18.777Z,11.25
2023-03-14T05:59:18.812Z,11.25
2023-03-14T06:00:18.833Z,11.25
2023-03-14T06:01:18.851Z,11.25
2023-03-14T06:02:18.935Z,11.25
2023-03-14T06:03:18.926Z,11.25
2023-03-14T06:04:18.917Z,16.88
2023-03-14T06:05:18.931Z,22.50
2023-03-14T06:06:18.957Z,28.13
2023-03-14T06:07:18.984Z,28.13
2023-03-14T06:08:18.997Z,28.13
2023-03-14T06:09:19.020Z,22.50
2023-03-14T06:10:19.046Z,22.50
2023-03-14T06:11:19.074Z,16.88
2023-03-14T06:12:19.092Z,11.25
2023-03-14T06:13:19.106Z,11.25
2023-03-14T06:14:19.134Z,5.63
2023-03-14T06:15:19.150Z,5.63
2023-03-14T06:16:19.197Z,5.63
2023-03-14T06:17:19.197Z,5.63
2023-03-14T06:18:19.225Z,5.63
2023-03-14T06:19:19.239Z,5.63
2023-03-14T06:20:19.262Z,11.25
2023-03-14T06:21:19.411Z,11.25
2023-03-14T06:22:19.309Z,16.88
2023-03-14T06:23:19.333Z,16.88
2023-03-14T06:24:19.347Z,16.88
2023-03-14T06:25:19.378Z,22.50
2023-03-14T06:26:19.391Z,28.13
2023-03-14T06:27:19.416Z,28.13
2023-03-14T06:28:19.462Z,39.38
2023-03-14T06:29:19.458Z,50.63
2023-03-14T06:30:19.484Z,61.88
2023-03-14T06:31:19.535Z,61.88
2023-03-14T06:32:19.672Z,61.88
2023-03-14T06:33:19.568Z,67.50
2023-03-14T06:34:19.568Z,56.25
2023-03-14T06:35:19.587Z,50.63
2023-03-14T06:36:19.618Z,56.25
2023-03-14T06:37:21.051Z,61.88
2023-03-14T06:38:19.653Z,67.50
2023-03-14T06:39:19.679Z,73.13
2023-03-14T06:40:19.701Z,67.50
2023-03-14T06:41:19.730Z,73.13
2023-03-14T06:42:19.748Z,78.75
2023-03-14T06:43:19.777Z,84.38
2023-03-14T06:44:19.796Z,95.63
2023-03-14T06:45:19.816Z,101.25
2023-03-14T06:46:19.844Z,84.38
2023-03-14T06:47:19.856Z,56.25
2023-03-14T06:48:19.879Z,45.00
2023-03-14T06:49:19.900Z,39.38
2023-03-14T06:50:19.924Z,45.00
2023-03-14T06:51:19.952Z,45.00
2023-03-14T06:52:19.970Z,45.00
2023-03-14T06:53:20.004Z,45.00
2023-03-14T06:54:20.042Z,50.63
2023-03-14T06:55:22.148Z,45.00
2023-03-14T06:56:20.069Z,45.00
2023-03-14T06:57:20.127Z,61.88
2023-03-14T06:58:20.109Z,84.38
2023-03-14T06:59:20.125Z,78.75
2023-03-14T07:00:20.145Z,78.75
2023-03-14T07:01:20.228Z,67.50
2023-03-14T07:02:23.132Z,73.13
2023-03-14T07:03:20.209Z,90.00
2023-03-14T07:04:20.265Z,151.88
2023-03-14T07:05:20.271Z,129.38
2023-03-14T07:06:20.287Z,106.88
2023-03-14T07:07:20.300Z,95.63
2023-03-14T07:08:20.325Z,67.50
2023-03-14T07:09:20.344Z,50.63
2023-03-14T07:10:20.366Z,50.63
2023-03-14T07:11:20.390Z,56.25
2023-03-14T07:12:20.442Z,84.38
2023-03-14T07:13:20.432Z,112.50
2023-03-14T07:14:21.945Z,84.38
2023-03-14T07:15:20.612Z,90.00
2023-03-14T07:16:20.573Z,118.13
2023-03-14T07:17:20.522Z,101.25
2023-03-14T07:18:20.553Z,118.13
2023-03-14T07:19:20.572Z,185.63
2023-03-14T07:20:20.593Z,191.25
2023-03-14T07:21:20.614Z,157.50
2023-03-14T07:22:20.635Z,140.63
2023-03-14T07:23:20.662Z,106.88
2023-03-14T07:24:20.678Z,78.75
2023-03-14T07:25:20.707Z,61.88
2023-03-14T07:26:20.726Z,61.88
2023-03-14T07:27:20.762Z,67.50
2023-03-14T07:28:20.770Z,67.50
2023-03-14T07:29:20.792Z,56.25
2023-03-14T07:30:20.822Z,84.38
2023-03-14T07:31:20.888Z,135.00
2023-03-14T07:32:20.914Z,112.50
2023-03-14T07:33:20.893Z,95.63
2023-03-14T07:34:20.905Z,84.38
2023-03-14T07:35:20.927Z,78.75
2023-03-14T07:36:20.954Z,73.13
2023-03-14T07:37:20.997Z,61.88
2023-03-14T07:38:22.717Z,61.88
2023-03-14T07:39:21.020Z,67.50
2023-03-14T07:40:21.043Z,78.75
2023-03-14T07:41:21.065Z,101.25
2023-03-14T07:42:21.088Z,106.88
2023-03-14T07:43:21.109Z,101.25
2023-03-14T07:44:21.132Z,84.38
2023-03-14T07:45:21.165Z,84.38
2023-03-14T07:46:21.248Z,84.38
2023-03-14T07:47:21.203Z,90.00
2023-03-14T07:48:21.223Z,73.13
2023-03-14T07:49:21.247Z,61.88
2023-03-14T07:50:21.266Z,61.88
2023-03-14T07:51:21.288Z,101.25
2023-03-14T07:52:21.322Z,118.13
2023-03-14T07:53:21.335Z,95.63
2023-03-14T07:54:21.386Z,95.63
2023-03-14T07:55:21.391Z,95.63
2023-03-14T07:56:21.404Z,101.25
2023-03-14T07:57:21.438Z,78.75
2023-03-14T07:58:21.452Z,101.25
2023-03-14T07:59:21.473Z,78.75
2023-03-14T08:00:21.528Z,95.63
2023-03-14T08:01:21.533Z,84.38
2023-03-14T08:02:21.549Z,56.25
2023-03-14T08:03:21.560Z,56.25
2023-03-14T08:04:21.586Z,78.75
2023-03-14T08:05:21.607Z,73.13
2023-03-14T08:06:21.631Z,106.88
2023-03-14T08:07:21.652Z,146.25
2023-03-14T08:08:21.677Z,146.25
2023-03-14T08:09:21.704Z,112.50
2023-03-14T08:10:21.718Z,106.88
2023-03-14T08:11:21.742Z,95.63
2023-03-14T08:12:21.776Z,78.75
2023-03-14T08:13:21.789Z,84.38
2023-03-14T08:14:21.811Z,123.75
2023-03-14T08:15:21.836Z,123.75
2023-03-14T08:16:21.913Z,101.25
2023-03-14T08:17:21.890Z,95.63
2023-03-14T08:18:21.906Z,90.00
2023-03-14T08:19:21.946Z,84.38
2023-03-14T08:20:21.948Z,73.13
2023-03-14T08:21:21.969Z,78.75
2023-03-14T08:22:21.994Z,78.75
2023-03-14T08:23:22.015Z,78.75
2023-03-14T08:24:22.042Z,106.88
2023-03-14T08:25:22.111Z,112.50
2023-03-14T08:26:22.099Z,106.88
2023-03-14T08:27:22.106Z,185.63
2023-03-14T08:28:22.131Z,168.75
2023-03-14T08:29:22.146Z,168.75
2023-03-14T08:30:22.238Z,106.88
2023-03-14T08:31:22.316Z,78.75
2023-03-14T08:32:22.263Z,112.50
2023-03-14T08:33:22.241Z,112.50
2023-03-14T08:34:22.280Z,106.88
2023-03-14T08:35:22.375Z,123.75
2023-03-14T08:36:23.921Z,196.88
2023-03-14T08:37:26.669Z,196.88
2023-03-14T08:38:22.357Z,180.00
2023-03-14T08:39:22.412Z,118.13
2023-03-14T08:40:22.399Z,129.38
2023-03-14T08:41:22.429Z,129.38
2023-03-14T08:42:22.450Z,174.38
2023-03-14T08:43:22.467Z,230.63
2023-03-14T08:44:22.513Z,292.50
2023-03-14T08:45:22.525Z,213.75
2023-03-14T08:46:22.589Z,157.50
2023-03-14T08:47:22.561Z,129.38
2023-03-14T08:48:22.588Z,140.63
2023-03-14T08:49:22.638Z,112.50
2023-03-14T08:50:22.637Z,95.63
2023-03-14T08:51:22.655Z,106.88
2023-03-14T08:52:22.676Z,101.25
2023-03-14T08:53:22.703Z,95.63
2023-03-14T08:54:22.728Z,123.75
2023-03-14T08:55:22.768Z,101.25
2023-03-14T08:56:24.927Z,112.50
2023-03-14T08:57:22.850Z,106.88
2023-03-14T08:58:22.816Z,112.50
2023-03-14T08:59:22.838Z,118.13
2023-03-14T09:00:22.943Z,106.88
2023-03-14T09:01:22.913Z,84.38
2023-03-14T09:02:22.913Z,95.63
2023-03-14T09:03:22.932Z,101.25
2023-03-14T09:04:23.075Z,112.50
2023-03-14T09:05:22.981Z,95.63
2023-03-14T09:06:23.003Z,135.00
2023-03-14T09:07:23.032Z,140.63
2023-03-14T09:08:23.048Z,146.25
2023-03-14T09:09:23.065Z,146.25
2023-03-14T09:10:23.154Z,168.75
2023-03-14T09:11:23.114Z,180.00
2023-03-14T09:12:23.139Z,202.50
2023-03-14T09:13:23.167Z,180.00
2023-03-14T09:14:23.188Z,196.88
2023-03-14T09:15:23.217Z,241.88
2023-03-14T09:16:23.317Z,236.25
2023-03-14T09:17:23.254Z,174.38
2023-03-14T09:18:23.292Z,157.50
2023-03-14T09:19:23.312Z,163.13
2023-03-14T09:20:23.331Z,168.75
2023-03-14T09:21:23.369Z,213.75
2023-03-14T09:22:23.375Z,320.63
2023-03-14T09:23:23.492Z,253.13
2023-03-14T09:24:23.429Z,410.63
2023-03-14T09:25:23.451Z,354.38
2023-03-14T09:26:23.463Z,270.00
2023-03-14T09:27:23.506Z,320.63
2023-03-14T09:28:23.514Z,275.63
2023-03-14T09:29:23.548Z,309.38
2023-03-14T09:30:23.565Z,286.88
2023-03-14T09:31:23.632Z,253.13
2023-03-14T09:32:23.628Z,202.50
2023-03-14T09:33:23.632Z,163.13
2023-03-14T09:34:23.656Z,140.63
2023-03-14T09:35:23.704Z,174.38
2023-03-14T09:36:23.705Z,168.75
2023-03-14T09:37:23.738Z,135.00
2023-03-14T09:38:23.751Z,202.50
2023-03-14T09:39:23.787Z,213.75
2023-03-14T09:40:23.801Z,292.50
2023-03-14T09:41:23.819Z,286.88
2023-03-14T09:42:23.850Z,427.50
2023-03-14T09:43:23.871Z,399.38
2023-03-14T09:44:23.893Z,450.00
2023-03-14T09:45:23.917Z,421.88
2023-03-14T09:46:24.004Z,393.75
2023-03-14T09:47:23.967Z,438.75
2023-03-14T09:48:23.991Z,450.00
2023-03-14T09:49:24.015Z,450.00
2023-03-14T09:50:24.035Z,405.00
2023-03-14T09:51:24.060Z,365.63
2023-03-14T09:52:24.093Z,348.75
2023-03-14T09:53:24.103Z,320.63
2023-03-14T09:54:24.128Z,326.25
2023-03-14T09:55:24.160Z,315.00
2023-03-14T09:56:24.179Z,281.25
2023-03-14T09:57:24.210Z,264.38
2023-03-14T09:58:24.228Z,275.63
2023-03-14T09:59:24.252Z,292.50
2023-03-14T10:00:24.361Z,281.25
2023-03-14T10:01:24.387Z,241.88
2023-03-14T10:02:24.321Z,236.25
2023-03-14T10:03:24.354Z,196.88
2023-03-14T10:04:24.481Z,213.75
2023-03-14T10:05:24.396Z,213.75
2023-03-14T10:06:24.423Z,196.88
2023-03-14T10:07:24.442Z,180.00
2023-03-14T10:08:24.468Z,157.50
2023-03-14T10:09:24.490Z,135.00
2023-03-14T10:10:24.514Z,180.00
2023-03-14T10:11:24.539Z,191.25
2023-03-14T10:12:24.584Z,185.63
2023-03-14T10:13:24.586Z,112.50
2023-03-14T10:14:24.613Z,39.38
2023-03-14T10:15:24.637Z,78.75
2023-03-14T10:16:24.679Z,140.63
2023-03-14T10:17:24.682Z,157.50
2023-03-14T10:18:25.010Z,180.00
2023-03-14T10:19:24.729Z,180.00
2023-03-14T10:20:24.752Z,163.13
2023-03-14T10:21:24.776Z,140.63
2023-03-14T10:22:24.795Z,146.25
2023-03-14T10:23:24.822Z,157.50
2023-03-14T10:24:24.843Z,163.13
2023-03-14T10:25:24.868Z,157.50
2023-03-14T10:26:24.890Z,157.50
2023-03-14T10:27:24.910Z,157.50
2023-03-14T10:28:24.935Z,163.13
2023-03-14T10:29:24.960Z,168.75
2023-03-14T10:30:24.983Z,168.75
2023-03-14T10:31:25.000Z,168.75
2023-03-14T10:32:25.056Z,168.75
2023-03-14T10:33:25.061Z,180.00
2023-03-14T10:34:25.073Z,208.13
2023-03-14T10:35:25.107Z,191.25
2023-03-14T10:36:25.113Z,157.50
2023-03-14T10:37:25.143Z,157.50
2023-03-14T10:38:25.166Z,151.88
2023-03-14T10:39:25.182Z,157.50
2023-03-14T10:40:25.202Z,140.63
2023-03-14T10:41:25.223Z,123.75
2023-03-14T10:42:25.264Z,135.00
2023-03-14T10:43:25.272Z,112.50
2023-03-14T10:44:25.290Z,90.00
2023-03-14T10:45:25.319Z,73.13
2023-03-14T10:46:25.427Z,67.50
2023-03-14T10:47:25.363Z,90.00
2023-03-14T10:48:25.382Z,90.00
2023-03-14T10:49:25.400Z,84.38
2023-03-14T10:50:25.423Z,101.25
2023-03-14T10:51:25.444Z,95.63
2023-03-14T10:52:31.582Z,118.13
2023-03-14T10:53:27.443Z,151.88
2023-03-14T10:54:25.508Z,146.25
2023-03-14T10:55:25.530Z,140.63
2023-03-14T10:56:25.550Z,157.50
2023-03-14T10:57:25.574Z,185.63
2023-03-14T10:58:25.594Z,191.25
2023-03-14T10:59:25.618Z,174.38
2023-03-14T11:00:25.647Z,180.00
2023-03-14T11:01:25.661Z,129.38
2023-03-14T11:02:25.679Z,191.25
2023-03-14T11:03:25.697Z,146.25
2023-03-14T11:04:25.748Z,168.75
2023-03-14T11:05:25.742Z,213.75
2023-03-14T11:06:25.760Z,230.63
2023-03-14T11:07:25.786Z,180.00
2023-03-14T11:08:25.801Z,241.88
2023-03-14T11:09:25.821Z,275.63
2023-03-14T11:10:25.844Z,247.50
2023-03-14T11:11:25.862Z,348.75
2023-03-14T11:12:25.890Z,331.88
2023-03-14T11:13:25.907Z,382.50
2023-03-14T11:14:26.444Z,438.75
2023-03-14T11:15:25.966Z,461.25
2023-03-14T11:16:25.969Z,444.38
2023-03-14T11:17:25.988Z,376.88
2023-03-14T11:18:26.009Z,292.50
2023-03-14T11:19:26.057Z,438.75
2023-03-14T11:20:26.052Z,427.50
2023-03-14T11:21:26.070Z,399.38
2023-03-14T11:22:26.096Z,326.25
2023-03-14T11:23:26.118Z,360.00
2023-03-14T11:24:26.133Z,253.13
2023-03-14T11:25:26.158Z,230.63
2023-03-14T11:26:26.175Z,258.75
2023-03-14T11:27:26.195Z,247.50
2023-03-14T11:28:26.218Z,281.25
2023-03-14T11:29:26.236Z,326.25
2023-03-14T11:30:28.160Z,427.50
2023-03-14T11:31:26.346Z,421.88
2023-03-14T11:32:26.306Z,348.75
2023-03-14T11:33:26.322Z,416.25
2023-03-14T11:34:26.345Z,472.50
2023-03-14T11:35:26.358Z,478.13
2023-03-14T11:36:26.382Z,461.25
2023-03-14T11:37:26.402Z,455.63
2023-03-14T11:38:26.421Z,466.88
2023-03-14T11:39:26.441Z,478.13
2023-03-14T11:40:26.461Z,444.38
2023-03-14T11:41:26.492Z,376.88
2023-03-14T11:42:26.504Z,399.38
2023-03-14T11:43:26.530Z,410.63
2023-03-14T11:44:26.544Z,399.38
2023-03-14T11:45:26.565Z,393.75
2023-03-14T11:46:26.599Z,388.13
2023-03-14T11:47:26.613Z,388.13
2023-03-14T11:48:26.626Z,388.13
2023-03-14T11:49:26.660Z,393.75
2023-03-14T11:50:26.676Z,388.13
2023-03-14T11:51:26.683Z,376.88
2023-03-14T11:52:26.710Z,382.50
2023-03-14T11:53:26.731Z,416.25
2023-03-14T11:54:26.752Z,450.00
2023-03-14T11:55:26.773Z,461.25
2023-03-14T11:56:26.800Z,388.13
2023-03-14T11:57:26.839Z,405.00
2023-03-14T11:58:26.839Z,416.25
2023-03-14T11:59:26.848Z,421.88
2023-03-14T12:00:26.868Z,461.25
2023-03-14T12:01:26.893Z,472.50
2023-03-14T12:02:26.973Z,399.38
2023-03-14T12:03:27.026Z,382.50
2023-03-14T12:04:26.955Z,410.63
2023-03-14T12:05:26.977Z,444.38
2023-03-14T12:06:26.995Z,444.38
2023-03-14T12:07:27.012Z,489.38
2023-03-14T12:08:27.034Z,495.00
2023-03-14T12:09:27.053Z,489.38
2023-03-14T12:10:27.074Z,427.50
2023-03-14T12:11:27.097Z,393.75
2023-03-14T12:12:27.132Z,371.25
2023-03-14T12:13:27.139Z,360.00
2023-03-14T12:14:27.168Z,354.38
2023-03-14T12:15:27.180Z,303.75
2023-03-14T12:16:27.205Z,241.88
2023-03-14T12:17:27.220Z,258.75
2023-03-14T12:18:27.247Z,281.25
2023-03-14T12:19:27.265Z,331.88
2023-03-14T12:20:27.284Z,281.25
2023-03-14T12:21:27.305Z,281.25
2023-03-14T12:22:27.331Z,371.25
2023-03-14T12:23:27.347Z,444.38
2023-03-14T12:24:27.370Z,416.25
2023-03-14T12:25:27.390Z,461.25
2023-03-14T12:26:27.420Z,399.38
2023-03-14T12:27:27.429Z,399.38
2023-03-14T12:28:27.456Z,405.00
2023-03-14T12:29:27.476Z,421.88
2023-03-14T12:30:27.494Z,461.25
2023-03-14T12:31:27.538Z,489.38
2023-03-14T12:32:28.120Z,461.25
2023-03-14T12:33:27.594Z,438.75
2023-03-14T12:34:27.584Z,410.63
2023-03-14T12:35:27.746Z,393.75
2023-03-14T12:36:27.620Z,376.88
2023-03-14T12:37:27.643Z,376.88
2023-03-14T12:38:27.662Z,376.88
2023-03-14T12:39:27.691Z,382.50
2023-03-14T12:40:27.705Z,371.25
2023-03-14T12:41:27.727Z,388.13
2023-03-14T12:42:35.481Z,388.13
2023-03-14T12:43:27.769Z,393.75
2023-03-14T12:44:27.789Z,388.13
2023-03-14T12:45:27.814Z,388.13
2023-03-14T12:46:27.968Z,371.25
2023-03-14T12:47:27.853Z,303.75
2023-03-14T12:48:27.875Z,320.63
2023-03-14T12:49:27.896Z,281.25
2023-03-14T12:50:27.931Z,196.88
2023-03-14T12:51:27.999Z,157.50
2023-03-14T12:52:27.961Z,168.75
2023-03-14T12:53:27.980Z,185.63
2023-03-14T12:54:28.003Z,180.00
2023-03-14T12:55:28.024Z,208.13